Time;durP1;ratioP1;P1;durP2;ratioP2;P2;SDS_P1;SDS_P2;PMS_P1;PMS_P2;Temp;Humidity;BMP_temperature;BMP_pressure;BME280_temperature;BME280_humidity;BME280_pressure;Samples;Min_cycle;Max_cycle;Signal;HPM_P1;HPM_P2
2023/08/28 00:00:13;;;;;;;;;;;;;;;17.79;68.66;99474.66;1087108;47;19939;-82
2023/08/28 00:01:27;;;;;;;;;;;;;;;17.79;68.72;99466.53;1087558;54;19951;-83
2023/08/28 00:02:28;;;;;;;;;;;;;;;17.79;68.38;99469.25;1087984;46;19946;-83
2023/08/28 00:03:49;;;;;;;;;;;;;;;17.75;68.73;99468.00;1088023;54;19980;-83
2023/08/28 00:04:57;;;;;;;;;;;;;;;17.71;68.49;99474.84;1088253;46;19953;-83
2023/08/28 00:06:01;;;;;;;;;;;;;;;17.72;68.75;99471.09;1088216;46;20316;-82
2023/08/28 00:07:02;;;;;;;;;;;;;;;17.70;68.59;99467.78;1088013;47;19964;-85
2023/08/28 00:08:04;;;;;;;;;;;;;;;17.72;68.43;99465.69;1089376;39;20821;-83
2023/08/28 00:09:12;;;;;;;;;;;;;;;17.68;68.50;99459.88;1087837;47;20022;-84
2023/08/28 00:10:13;;;;;;;;;;;;;;;17.67;68.68;99466.31;1087591;47;20044;-83
2023/08/28 00:11:22;;;;;;;;;;;;;;;17.69;68.90;99458.00;1087720;47;19952;-82
2023/08/28 00:12:23;;;;;;;;;;;;;;;17.69;68.75;99458.00;1087677;47;19930;-81
2023/08/28 00:13:24;;;;;;;;;;;;;;;17.68;68.63;99459.03;1087509;54;19957;-83
2023/08/28 00:14:30;;;;;;;;;;;;;;;17.68;68.79;99459.88;1087423;54;19943;-82
2023/08/28 00:15:31;;;;;;;;;;;;;;;17.66;68.50;99453.03;1087661;46;19935;-84
2023/08/28 00:16:35;;;;;;;;;;;;;;;17.64;68.72;99447.81;1087327;47;19946;-82
2023/08/28 00:17:36;;;;;;;;;;;;;;;17.67;68.89;99452.81;1087500;54;19969;-83
2023/08/28 00:18:40;;;;;;;;;;;;;;;17.68;68.86;99450.91;1087445;47;19930;-83
2023/08/28 00:19:41;;;;;;;;;;;;;;;17.58;68.95;99446.75;1087593;47;19923;-83
2023/08/28 00:20:45;;;;;;;;;;;;;;;17.50;69.37;99435.31;1087714;54;19942;-83
2023/08/28 00:21:46;;;;;;;;;;;;;;;17.42;69.31;99436.34;1086174;47;20605;-83
2023/08/28 00:22:49;;;;;;;;;;;;;;;17.46;69.71;99433.00;1085854;47;20091;-82
2023/08/28 00:23:50;;;;;;;;;;;;;;;17.50;69.56;99432.63;1085932;47;20451;-82
2023/08/28 00:24:57;;;;;;;;;;;;;;;17.50;69.32;99433.44;1085666;47;19946;-82
2023/08/28 00:25:59;;;;;;;;;;;;;;;17.52;69.24;99428.66;1085976;54;19951;-81
2023/08/28 00:27:02;;;;;;;;;;;;;;;17.52;69.06;99417.03;1086136;54;19950;-83
2023/08/28 00:28:07;;;;;;;;;;;;;;;17.54;69.14;99412.25;1085835;47;19962;-83
2023/08/28 00:29:12;;;;;;;;;;;;;;;17.55;69.17;99405.81;1086025;47;20455;-82
2023/08/28 00:30:14;;;;;;;;;;;;;;;17.56;69.31;99399.34;1087208;54;19973;-84
2023/08/28 00:31:31;;;;;;;;;;;;;;;17.55;68.92;99395.84;1087435;47;20002;-81
2023/08/28 00:32:33;;;;;;;;;;;;;;;17.56;69.15;99399.34;1087511;54;20632;-84
2023/08/28 00:33:35;;;;;;;;;;;;;;;17.57;69.05;99392.91;1087397;47;20002;-82
2023/08/28 00:34:38;;;;;;;;;;;;;;;17.59;69.18;99390.84;1087167;47;19953;-82
2023/08/28 00:35:40;;;;;;;;;;;;;;;17.60;69.14;99393.34;1087474;54;20559;-82
2023/08/28 00:36:43;;;;;;;;;;;;;;;17.62;69.11;99393.97;1087808;54;20600;-85
2023/08/28 00:37:53;;;;;;;;;;;;;;;17.64;68.84;99390.22;1087843;54;19946;-84
2023/08/28 00:39:13;;;;;;;;;;;;;;;17.57;69.21;99395.63;1088511;31;20715;-83
2023/08/28 00:40:29;;;;;;;;;;;;;;;17.55;68.99;99395.84;1087655;47;19962;-83
2023/08/28 00:41:36;;;;;;;;;;;;;;;17.59;69.00;99404.38;1087871;47;19975;-83
2023/08/28 00:42:37;;;;;;;;;;;;;;;17.61;69.23;99411.22;1087678;47;19931;-83
2023/08/28 00:43:41;;;;;;;;;;;;;;;17.60;68.84;99409.56;1088538;39;20505;-85
2023/08/28 00:44:42;;;;;;;;;;;;;;;17.62;68.83;99414.75;1088033;39;20607;-85
2023/08/28 00:45:46;;;;;;;;;;;;;;;17.61;69.19;99413.09;1087569;47;20061;-82
2023/08/28 00:46:51;;;;;;;;;;;;;;;17.54;69.58;99396.88;1087854;54;19953;-84
2023/08/28 00:47:57;;;;;;;;;;;;;;;17.53;69.10;99392.50;1087511;47;19938;-83
2023/08/28 00:49:15;;;;;;;;;;;;;;;17.55;69.08;99393.13;1087441;47;19939;-82
2023/08/28 00:50:21;;;;;;;;;;;;;;;17.57;69.01;99388.34;1087712;54;20023;-82
2023/08/28 00:51:28;;;;;;;;;;;;;;;17.57;68.93;99384.81;1087554;47;19942;-83
2023/08/28 00:52:40;;;;;;;;;;;;;;;17.56;69.18;99394.81;1087613;47;19965;-83
2023/08/28 00:53:41;;;;;;;;;;;;;;;17.45;69.62;99411.63;1087850;47;19947;-84
2023/08/28 00:56:25;;;;;;;;;;;;;;;17.18;70.46;99419.66;1088031;54;19927;-85
2023/08/28 01:22:52;;;;;;;;;;;;;;;17.03;71.50;99424.38;1093126;38;20629;-84
2023/08/28 01:23:55;;;;;;;;;;;;;;;16.98;71.91;99428.53;1088712;54;19970;-82
2023/08/28 01:25:04;;;;;;;;;;;;;;;16.94;72.69;99421.84;1088155;46;19950;-82
2023/08/28 01:26:10;;;;;;;;;;;;;;;16.90;72.66;99435.94;1088457;47;20041;-83
2023/08/28 01:27:17;;;;;;;;;;;;;;;16.87;72.78;99434.47;1088095;46;19958;-83
2023/08/28 01:28:22;;;;;;;;;;;;;;;16.91;72.75;99434.91;1088209;46;19973;-81
2023/08/28 01:29:26;;;;;;;;;;;;;;;16.93;72.81;99449.88;1088384;46;19974;-84
2023/08/28 01:30:30;;;;;;;;;;;;;;;16.92;72.87;99447.38;1088308;46;19945;-83
2023/08/28 01:31:31;;;;;;;;;;;;;;;16.91;72.89;99449.22;1088073;46;19943;-83
2023/08/28 01:32:32;;;;;;;;;;;;;;;16.87;73.55;99449.81;1088291;46;20740;-83
2023/08/28 01:33:37;;;;;;;;;;;;;;;16.87;73.27;99442.56;1088020;46;20604;-83
2023/08/28 01:34:40;;;;;;;;;;;;;;;16.86;73.31;99448.19;1088145;47;20627;-84
2023/08/28 01:35:44;;;;;;;;;;;;;;;16.94;73.42;99445.34;1088983;46;19945;-82
2023/08/28 01:36:47;;;;;;;;;;;;;;;16.97;73.29;99450.31;1088170;46;20503;-84
2023/08/28 01:38:00;;;;;;;;;;;;;;;16.91;73.44;99446.50;1087794;46;20054;-82
2023/08/28 01:39:05;;;;;;;;;;;;;;;16.87;73.64;99447.13;1088127;46;20020;-83
2023/08/28 01:40:15;;;;;;;;;;;;;;;16.89;73.58;99454.00;1087763;46;20067;-81
2023/08/28 01:41:18;;;;;;;;;;;;;;;16.90;73.40;99449.44;1087814;46;20553;-82
2023/08/28 01:42:39;;;;;;;;;;;;;;;16.88;73.54;99452.34;1088827;46;19929;-87
2023/08/28 01:43:43;;;;;;;;;;;;;;;16.91;73.29;99449.22;1090232;46;19935;-86
2023/08/28 02:06:13;;;;;;;;;;;;;;;16.99;72.64;99438.28;1089684;54;19942;-86
2023/08/28 02:07:18;;;;;;;;;;;;;;;16.99;72.99;99443.69;1089283;46;19939;-82
2023/08/28 02:08:27;;;;;;;;;;;;;;;16.98;73.06;99438.47;1089294;54;20243;-83
2023/08/28 02:09:30;;;;;;;;;;;;;;;17.00;72.94;99447.22;1089314;46;19938;-83
2023/08/28 02:10:34;;;;;;;;;;;;;;;16.97;73.26;99453.00;1089295;46;19998;-83
2023/08/28 02:11:35;;;;;;;;;;;;;;;16.98;73.07;99451.97;1089211;46;19950;-84
2023/08/28 02:12:41;;;;;;;;;;;;;;;16.99;73.25;99454.50;1089266;47;19965;-83
2023/08/28 02:13:44;;;;;;;;;;;;;;;16.98;73.22;99452.81;1088993;46;20604;-83
2023/08/28 02:14:54;;;;;;;;;;;;;;;16.94;73.23;99461.53;1089344;46;20653;-83
2023/08/28 02:15:56;;;;;;;;;;;;;;;16.89;73.58;99454.00;1089221;47;19958;-84
2023/08/28 02:17:01;;;;;;;;;;;;;;;16.92;73.63;99453.59;1089137;46;19951;-82
2023/08/28 02:18:13;;;;;;;;;;;;;;;16.95;73.26;99452.41;1088833;47;20556;-83
2023/08/28 02:19:17;;;;;;;;;;;;;;;16.95;73.44;99450.53;1088874;46;19950;-83
2023/08/28 02:20:18;;;;;;;;;;;;;;;16.97;73.09;99450.31;1088911;46;19941;-83
2023/08/28 02:21:24;;;;;;;;;;;;;;;16.99;73.25;99449.09;1088684;47;20557;-83
2023/08/28 02:22:43;;;;;;;;;;;;;;;16.96;73.34;99441.38;1087439;54;19958;-84
2023/08/28 02:23:50;;;;;;;;;;;;;;;16.99;73.24;99435.59;1087460;47;19947;-84
2023/08/28 02:24:51;;;;;;;;;;;;;;;16.92;73.52;99437.38;1087046;47;20001;-82
2023/08/28 02:25:52;;;;;;;;;;;;;;;16.78;74.54;99432.97;1086967;47;20034;-81
2023/08/28 02:26:58;;;;;;;;;;;;;;;16.78;74.94;99435.66;1087343;47;19950;-86
2023/08/28 02:29:02;;;;;;;;;;;;;;;16.76;74.54;99425.09;1088251;47;19946;-84
2023/08/28 02:30:06;;;;;;;;;;;;;;;16.78;74.57;99414.91;1087707;54;19942;-84
2023/08/28 02:31:09;;;;;;;;;;;;;;;16.83;74.12;99408.91;1087407;47;19950;-83
2023/08/28 02:32:17;;;;;;;;;;;;;;;16.76;74.04;99408.03;1087568;46;19946;-82
2023/08/28 02:33:18;;;;;;;;;;;;;;;16.71;74.51;99397.84;1087525;47;20589;-84
2023/08/28 02:34:21;;;;;;;;;;;;;;;16.62;74.46;99399.91;1086987;46;19954;-81
2023/08/28 02:35:23;;;;;;;;;;;;;;;16.60;74.75;99393.88;1086651;47;19950;-85
2023/08/28 02:36:26;;;;;;;;;;;;;;;16.56;74.79;99395.28;1086838;54;20580;-84
2023/08/28 02:37:29;;;;;;;;;;;;;;;16.51;75.61;99393.19;1090539;31;20575;-83
2023/08/28 02:38:32;;;;;;;;;;;;;;;16.46;75.95;99392.13;1087758;54;19954;-83
2023/08/28 02:39:36;;;;;;;;;;;;;;;16.45;75.69;99385.06;1088323;39;20591;-84
2023/08/28 02:40:38;;;;;;;;;;;;;;;16.47;75.36;99386.53;1087752;54;19954;-83
2023/08/28 02:41:46;;;;;;;;;;;;;;;16.48;75.61;99387.38;1087292;47;19950;-83
2023/08/28 02:42:47;;;;;;;;;;;;;;;16.51;75.22;99381.59;1087213;54;19947;-81
2023/08/28 02:43:51;;;;;;;;;;;;;;;16.56;75.22;99373.69;1087631;39;20123;-84
2023/08/28 02:44:55;;;;;;;;;;;;;;;16.58;74.83;99368.94;1087680;47;20755;-83
2023/08/28 02:45:56;;;;;;;;;;;;;;;16.58;75.07;99371.66;1087308;47;19939;-82
2023/08/28 02:47:00;;;;;;;;;;;;;;;16.59;75.26;99373.31;1086244;54;19998;-84
2023/08/28 02:48:03;;;;;;;;;;;;;;;16.60;74.77;99369.59;1087138;47;19965;-85
2023/08/28 02:49:06;;;;;;;;;;;;;;;16.63;74.78;99368.34;1087565;46;19953;-84
2023/08/28 02:50:08;;;;;;;;;;;;;;;16.65;74.55;99369.81;1087387;46;19963;-83
2023/08/28 02:51:11;;;;;;;;;;;;;;;16.67;74.19;99370.44;1092246;39;20576;-83
2023/08/28 02:52:12;;;;;;;;;;;;;;;16.68;74.54;99363.16;1087967;47;19974;-84
2023/08/28 02:53:16;;;;;;;;;;;;;;;16.71;74.22;99365.47;1088182;46;20022;-87
2023/08/28 02:54:17;;;;;;;;;;;;;;;16.72;74.09;99366.31;1087628;47;20002;-85
2023/08/28 02:55:24;;;;;;;;;;;;;;;16.71;74.56;99362.78;1087653;54;19927;-83
2023/08/28 02:56:26;;;;;;;;;;;;;;;16.71;74.48;99364.66;1087020;47;19938;-81
2023/08/28 02:57:29;;;;;;;;;;;;;;;16.62;75.22;99362.13;1086003;47;19950;-82
2023/08/28 02:58:30;;;;;;;;;;;;;;;16.64;74.76;99364.63;1084807;46;19954;-81
2023/08/28 02:59:34;;;;;;;;;;;;;;;16.63;75.30;99358.38;1085024;54;19950;-82
2023/08/28 03:00:35;;;;;;;;;;;;;;;16.63;74.73;99358.38;1084916;54;19958;-82
2023/08/28 03:01:39;;;;;;;;;;;;;;;16.63;74.82;99358.38;1085232;54;19955;-82
2023/08/28 03:02:40;;;;;;;;;;;;;;;16.59;75.29;99362.53;1084891;47;20634;-82
2023/08/28 03:03:44;;;;;;;;;;;;;;;16.62;74.83;99366.69;1085166;47;20066;-82
2023/08/28 03:04:45;;;;;;;;;;;;;;;16.60;75.00;99364.19;1085142;47;19990;-82
2023/08/28 03:05:48;;;;;;;;;;;;;;;16.60;75.05;99364.19;1085722;47;20507;-82
2023/08/28 03:06:50;;;;;;;;;;;;;;;16.60;75.29;99369.59;1086019;46;19950;-82
2023/08/28 03:07:53;;;;;;;;;;;;;;;16.58;75.46;99365.44;1087342;31;20529;-84
2023/08/28 03:08:54;;;;;;;;;;;;;;;16.58;75.56;99368.13;1101938;31;20755;-83
2023/08/28 03:09:59;;;;;;;;;;;;;;;16.61;74.94;99363.16;1088066;46;19923;-87
2023/08/28 03:11:16;;;;;;;;;;;;;;;16.62;75.32;99367.53;1088370;46;19991;-82
2023/08/28 03:12:20;;;;;;;;;;;;;;;16.64;75.00;99364.63;1087528;46;20558;-84
2023/08/28 03:13:21;;;;;;;;;;;;;;;16.63;75.00;99363.75;1087138;54;19949;-82
2023/08/28 03:14:38;;;;;;;;;;;;;;;16.62;74.79;99370.22;1087388;47;20487;-82
2023/08/28 03:15:39;;;;;;;;;;;;;;;16.58;75.25;99368.13;1087885;54;19938;-84
2023/08/28 03:16:42;;;;;;;;;;;;;;;16.54;75.35;99364.97;1087601;54;20582;-82
2023/08/28 03:17:55;;;;;;;;;;;;;;;16.55;75.47;99363.94;1087736;47;20003;-83
2023/08/28 03:19:15;;;;;;;;;;;;;;;16.57;74.95;99366.47;1087502;47;19947;-84
2023/08/28 03:20:22;;;;;;;;;;;;;;;16.60;75.23;99364.19;1087194;47;19923;-83
2023/08/28 03:21:25;;;;;;;;;;;;;;;16.61;74.90;99365.00;1088702;39;20417;-82
2023/08/28 03:22:26;;;;;;;;;;;;;;;16.63;75.18;99373.75;1087597;47;19942;-84
2023/08/28 03:23:30;;;;;;;;;;;;;;;16.63;75.01;99377.25;1087458;54;19947;-84
2023/08/28 03:24:31;;;;;;;;;;;;;;;16.66;75.16;99374.16;1087957;46;19939;-85
2023/08/28 03:25:34;;;;;;;;;;;;;;;16.64;75.02;99376.22;1087984;54;19934;-83
2023/08/28 03:26:38;;;;;;;;;;;;;;;16.65;75.19;99364.41;1087797;54;20569;-84
2023/08/28 03:27:43;;;;;;;;;;;;;;;16.63;75.86;99369.16;1087933;46;19942;-84
2023/08/28 03:29:53;;;;;;;;;;;;;;;16.61;75.76;99357.75;1087398;47;20510;-82
2023/08/28 03:30:57;;;;;;;;;;;;;;;16.51;76.55;99354.59;1086096;54;19951;-82
2023/08/28 03:32:01;;;;;;;;;;;;;;;16.51;76.58;99360.00;1085387;47;19951;-82
2023/08/28 03:33:02;;;;;;;;;;;;;;;16.47;77.18;99348.78;1086102;54;19942;-81
2023/08/28 03:34:08;;;;;;;;;;;;;;;16.46;76.96;99346.25;1085135;47;19963;-82
2023/08/28 03:35:09;;;;;;;;;;;;;;;16.44;77.27;99348.31;1085815;54;19942;-82
2023/08/28 03:36:12;;;;;;;;;;;;;;;16.45;77.40;99360.78;1086960;47;20568;-82
2023/08/28 03:37:13;;;;;;;;;;;;;;;16.44;77.56;99359.09;1086698;54;19942;-82
2023/08/28 03:38:14;;;;;;;;;;;;;;;16.36;78.16;99352.84;1085682;47;20082;-82
2023/08/28 03:39:27;;;;;;;;;;;;;;;16.27;78.65;99359.44;1086637;39;20421;-82
2023/08/28 03:40:28;;;;;;;;;;;;;;;16.26;78.70;99365.03;1085096;47;19951;-83
2023/08/28 03:41:31;;;;;;;;;;;;;;;16.22;78.86;99361.91;1088102;39;20396;-83
2023/08/28 03:42:35;;;;;;;;;;;;;;;16.21;78.92;99365.66;1086424;46;19947;-83
2023/08/28 03:43:39;;;;;;;;;;;;;;;16.11;80.00;99362.47;1086065;39;20448;-83
2023/08/28 03:44:42;;;;;;;;;;;;;;;16.01;80.23;99358.25;1085818;47;19938;-82
2023/08/28 03:45:45;;;;;;;;;;;;;;;16.09;80.09;99362.69;1085873;47;19945;-82
2023/08/28 03:46:49;;;;;;;;;;;;;;;16.04;80.04;99376.75;1085629;54;20057;-82
2023/08/28 03:47:52;;;;;;;;;;;;;;;16.09;79.81;99368.06;1085747;47;19951;-80
2023/08/28 03:48:59;;;;;;;;;;;;;;;16.14;79.66;99372.88;1085421;54;20451;-82
2023/08/28 03:50:14;;;;;;;;;;;;;;;16.14;79.42;99371.00;1088560;39;20511;-83
2023/08/28 03:51:15;;;;;;;;;;;;;;;15.99;80.80;99378.34;1086766;54;19947;-82
2023/08/28 03:52:19;;;;;;;;;;;;;;;16.04;80.00;99376.75;1087665;39;20391;-82
2023/08/28 03:53:20;;;;;;;;;;;;;;;16.06;80.45;99390.00;1086521;47;19949;-83
2023/08/28 03:54:25;;;;;;;;;;;;;;;16.05;80.29;99377.56;1086593;47;19974;-82
2023/08/28 03:55:27;;;;;;;;;;;;;;;16.01;80.50;99371.75;1086697;46;19951;-83
2023/08/28 03:56:31;;;;;;;;;;;;;;;15.95;80.78;99379.78;1086334;54;19950;-82
2023/08/28 03:57:36;;;;;;;;;;;;;;;16.00;80.59;99382.72;1087048;47;19946;-82
2023/08/28 03:58:43;;;;;;;;;;;;;;;15.99;80.70;99381.88;1086431;47;19950;-82
2023/08/28 03:59:46;;;;;;;;;;;;;;;16.00;80.09;99375.47;1086287;39;20767;-84
2023/08/28 04:00:50;;;;;;;;;;;;;;;16.06;80.16;99385.44;1087035;39;20513;-80
2023/08/28 04:01:51;;;;;;;;;;;;;;;16.05;80.18;99383.81;1085166;47;20083;-83
2023/08/28 04:02:52;;;;;;;;;;;;;;;16.02;80.82;99377.94;1087403;47;19966;-84
2023/08/28 04:04:01;;;;;;;;;;;;;;;16.03;80.16;99380.47;1087929;46;20042;-84
2023/08/28 04:05:05;;;;;;;;;;;;;;;16.03;80.48;99377.78;1088000;54;19931;-85
2023/08/28 04:06:21;;;;;;;;;;;;;;;16.01;80.82;99381.69;1098603;39;20539;-84
2023/08/28 04:07:22;;;;;;;;;;;;;;;15.99;80.42;99371.09;1088122;47;19923;-84
2023/08/28 04:08:35;;;;;;;;;;;;;;;16.02;79.83;99373.41;1088233;47;19950;-85
2023/08/28 04:09:38;;;;;;;;;;;;;;;16.05;80.07;99377.56;1087949;46;19950;-81
2023/08/28 04:10:45;;;;;;;;;;;;;;;16.04;80.50;99373.19;1085976;46;19950;-83
2023/08/28 04:11:48;;;;;;;;;;;;;;;16.02;80.73;99376.09;1085966;46;20510;-82
2023/08/28 04:12:52;;;;;;;;;;;;;;;16.03;80.63;99379.63;1085995;47;19951;-82
2023/08/28 04:13:58;;;;;;;;;;;;;;;16.05;80.40;99380.25;1086277;54;19947;-82
2023/08/28 04:15:00;;;;;;;;;;;;;;;16.00;80.69;99383.53;1086185;47;19973;-82
2023/08/28 04:16:05;;;;;;;;;;;;;;;15.99;80.89;99384.56;1085037;46;20910;-80
2023/08/28 04:17:06;;;;;;;;;;;;;;;16.04;80.44;99390.22;1085145;39;20533;-81
2023/08/28 04:18:10;;;;;;;;;;;;;;;16.05;80.26;99389.19;1084445;54;19946;-81
2023/08/28 04:19:14;;;;;;;;;;;;;;;15.99;80.96;99387.25;1084936;54;19947;-82
2023/08/28 04:20:18;;;;;;;;;;;;;;;16.05;80.46;99391.03;1085358;46;19947;-81
2023/08/28 04:21:19;;;;;;;;;;;;;;;16.06;80.08;99385.44;1085809;51;19953;-81
2023/08/28 04:22:22;;;;;;;;;;;;;;;16.09;79.68;99391.47;1084853;54;20478;-82
2023/08/28 04:23:23;;;;;;;;;;;;;;;16.11;79.83;99381.34;1085151;47;20492;-81
2023/08/28 04:24:26;;;;;;;;;;;;;;;16.09;80.45;99388.78;1085157;47;19950;-81
2023/08/28 04:25:28;;;;;;;;;;;;;;;16.01;81.15;99393.31;1084474;54;19946;-80
2023/08/28 04:26:32;;;;;;;;;;;;;;;16.01;81.43;99387.91;1084632;47;19953;-82
2023/08/28 04:27:33;;;;;;;;;;;;;;;16.04;81.16;99387.53;1084909;47;19950;-82
2023/08/28 04:28:36;;;;;;;;;;;;;;;16.06;80.76;99390.84;1084885;47;20000;-81
2023/08/28 04:29:45;;;;;;;;;;;;;;;16.09;79.89;99381.53;1086457;39;20844;-84
2023/08/28 04:31:00;;;;;;;;;;;;;;;16.12;80.03;99391.09;1087521;46;19930;-82
2023/08/28 04:32:04;;;;;;;;;;;;;;;16.12;80.03;99391.09;1086657;39;20469;-81
2023/08/28 04:33:10;;;;;;;;;;;;;;;16.09;80.71;99389.63;1086161;47;19935;-81
2023/08/28 04:34:12;;;;;;;;;;;;;;;16.09;80.75;99388.78;1086224;47;19966;-81
2023/08/28 04:35:16;;;;;;;;;;;;;;;16.11;80.75;99378.66;1085431;47;19953;-81
2023/08/28 04:36:17;;;;;;;;;;;;;;;16.09;80.75;99380.69;1085753;47;19977;-81
2023/08/28 04:37:21;;;;;;;;;;;;;;;16.06;80.72;99380.06;1086184;47;19943;-82
2023/08/28 04:38:23;;;;;;;;;;;;;;;16.10;80.51;99377.81;1086064;47;19950;-82
2023/08/28 04:39:26;;;;;;;;;;;;;;;16.14;80.32;99380.94;1085725;54;19947;-82
2023/08/28 04:40:27;;;;;;;;;;;;;;;16.16;80.04;99378.88;1085871;54;19950;-82
2023/08/28 04:41:37;;;;;;;;;;;;;;;16.14;80.27;99368.28;1086570;47;19975;-82
2023/08/28 04:42:38;;;;;;;;;;;;;;;16.16;79.83;99368.09;1086306;46;20027;-80
2023/08/28 04:43:42;;;;;;;;;;;;;;;16.16;79.75;99368.09;1086595;46;19951;-83
2023/08/28 04:44:46;;;;;;;;;;;;;;;16.12;80.45;99367.66;1086045;47;19954;-82
2023/08/28 04:46:00;;;;;;;;;;;;;;;16.14;80.33;99364.78;1086570;46;19942;-82
2023/08/28 04:47:01;;;;;;;;;;;;;;;16.11;80.75;99355.19;1086599;47;19942;-80
2023/08/28 04:48:05;;;;;;;;;;;;;;;16.12;80.12;99356.88;1086350;47;19950;-81
2023/08/28 04:49:07;;;;;;;;;;;;;;;16.13;80.35;99363.09;1087061;54;19943;-83
2023/08/28 04:50:16;;;;;;;;;;;;;;;16.12;80.02;99356.88;1087270;54;19942;-83
2023/08/28 04:51:19;;;;;;;;;;;;;;;16.10;80.52;99360.78;1086891;47;19998;-82
2023/08/28 04:52:23;;;;;;;;;;;;;;;16.12;80.63;99351.47;1085833;46;19953;-82
2023/08/28 04:53:26;;;;;;;;;;;;;;;16.15;80.04;99361.06;1087477;47;20021;-82
2023/08/28 04:54:29;;;;;;;;;;;;;;;16.14;80.30;99356.69;1087041;47;19938;-81
2023/08/28 04:55:30;;;;;;;;;;;;;;;16.13;80.40;99357.72;1085823;47;20039;-80
2023/08/28 04:56:37;;;;;;;;;;;;;;;16.14;80.66;99359.38;1086536;47;19982;-83
2023/08/28 04:57:37;;;;;;;;;;;;;;;16.12;80.75;99350.66;1087097;47;19962;-82
2023/08/28 04:58:44;;;;;;;;;;;;;;;16.13;80.53;99346.94;1086315;47;20093;-82
2023/08/28 04:59:48;;;;;;;;;;;;;;;16.14;80.90;99357.50;1086864;47;19987;-80
2023/08/28 05:01:10;;;;;;;;;;;;;;;16.13;81.15;99360.41;1087857;47;19922;-84
2023/08/28 05:02:12;;;;;;;;;;;;;;;16.13;81.58;99350.44;1086568;54;19946;-81
2023/08/28 05:03:37;;;;;;;;;;;;;;;16.11;81.36;99352.50;1087208;47;19966;-82
2023/08/28 05:04:43;;;;;;;;;;;;;;;16.12;81.13;99351.47;1086637;47;19939;-82
2023/08/28 05:05:47;;;;;;;;;;;;;;;16.15;81.05;99351.09;1086804;47;19938;-82
2023/08/28 05:06:49;;;;;;;;;;;;;;;16.17;81.10;99348.19;1087088;47;19946;-83
2023/08/28 05:07:53;;;;;;;;;;;;;;;16.17;81.22;99357.13;1087098;54;19998;-82
2023/08/28 05:08:54;;;;;;;;;;;;;;;16.17;81.25;99348.19;1086824;47;20038;-84
2023/08/28 05:09:58;;;;;;;;;;;;;;;16.17;81.10;99359.81;1087034;47;19942;-82
2023/08/28 05:11:02;;;;;;;;;;;;;;;16.18;81.02;99350.69;1087197;47;19946;-81
2023/08/28 05:12:06;;;;;;;;;;;;;;;16.19;81.48;99349.69;1086015;54;19957;-82
2023/08/28 05:13:10;;;;;;;;;;;;;;;16.18;81.72;99349.84;1085666;47;20699;-81
2023/08/28 05:14:14;;;;;;;;;;;;;;;16.17;81.81;99348.19;1085145;54;20605;-81
2023/08/28 05:15:15;;;;;;;;;;;;;;;16.10;82.45;99350.88;1086046;47;19947;-81
2023/08/28 05:16:21;;;;;;;;;;;;;;;16.13;81.76;99341.53;1085303;54;19957;-82
2023/08/28 05:17:22;;;;;;;;;;;;;;;16.05;82.50;99343.38;1085903;47;19950;-80
2023/08/28 05:18:27;;;;;;;;;;;;;;;16.06;82.81;99350.41;1085655;47;19951;-80
2023/08/28 05:19:30;;;;;;;;;;;;;;;16.11;82.19;99354.38;1085691;47;19951;-80
2023/08/28 05:20:34;;;;;;;;;;;;;;;16.07;82.62;99345.84;1085132;47;19942;-80
2023/08/28 05:21:39;;;;;;;;;;;;;;;16.02;83.24;99359.06;1085649;47;19947;-81
2023/08/28 05:22:43;;;;;;;;;;;;;;;16.04;82.68;99357.03;1085752;47;20505;-80
2023/08/28 05:23:45;;;;;;;;;;;;;;;16.08;82.29;99352.06;1085596;47;20049;-80
2023/08/28 05:24:49;;;;;;;;;;;;;;;16.11;82.40;99354.38;1086369;39;20384;-80
2023/08/28 05:25:50;;;;;;;;;;;;;;;16.11;82.65;99355.19;1085925;39;20419;-80
2023/08/28 05:26:54;;;;;;;;;;;;;;;16.07;82.47;99353.94;1084897;47;19950;-80
2023/08/28 05:27:55;;;;;;;;;;;;;;;16.03;82.74;99356.22;1085386;47;19946;-81
2023/08/28 05:29:00;;;;;;;;;;;;;;;16.03;83.00;99363.44;1085256;47;19955;-80
2023/08/28 05:30:00;;;;;;;;;;;;;;;16.02;82.60;99361.78;1084877;47;20083;-80
2023/08/28 05:31:04;;;;;;;;;;;;;;;16.05;82.54;99373.03;1085744;47;19979;-80
2023/08/28 05:32:12;;;;;;;;;;;;;;;16.04;82.41;99365.97;1086175;39;20616;-81
2023/08/28 05:33:17;;;;;;;;;;;;;;;16.08;82.27;99371.78;1085508;47;19951;-81
2023/08/28 05:34:24;;;;;;;;;;;;;;;16.11;81.99;99368.69;1084978;54;19954;-81
2023/08/28 05:35:34;;;;;;;;;;;;;;;16.11;81.66;99373.25;1085400;54;19950;-80
2023/08/28 05:36:41;;;;;;;;;;;;;;;16.13;81.84;99371.19;1085310;54;20002;-81
2023/08/28 05:37:51;;;;;;;;;;;;;;;16.15;81.73;99371.84;1085349;54;19950;-81
2023/08/28 05:38:58;;;;;;;;;;;;;;;16.10;82.23;99376.97;1085321;54;19962;-80
2023/08/28 05:40:09;;;;;;;;;;;;;;;16.06;83.19;99368.44;1085399;54;19951;-82
2023/08/28 05:41:16;;;;;;;;;;;;;;;16.06;82.97;99371.16;1085329;54;19939;-82
2023/08/28 05:42:26;;;;;;;;;;;;;;;16.01;83.35;99363.66;1087570;39;20430;-80
2023/08/28 05:43:33;;;;;;;;;;;;;;;15.94;84.12;99373.56;1085217;54;19958;-81
2023/08/28 05:44:45;;;;;;;;;;;;;;;15.99;83.42;99373.78;1085408;54;19950;-81
2023/08/28 05:45:52;;;;;;;;;;;;;;;16.02;82.96;99383.34;1085168;54;19947;-79
2023/08/28 05:47:03;;;;;;;;;;;;;;;16.02;83.57;99375.25;1084815;54;19947;-80
2023/08/28 05:48:13;;;;;;;;;;;;;;;16.02;83.15;99357.22;1085199;54;19950;-83
2023/08/28 05:49:23;;;;;;;;;;;;;;;16.01;83.33;99360.97;1085577;54;19950;-81
2023/08/28 05:50:24;;;;;;;;;;;;;;;16.00;83.45;99359.28;1086954;47;19939;-81
2023/08/28 05:53:11;;;;;;;;;;;;;;;16.01;83.08;99344.78;1086952;47;20862;-79
2023/08/28 05:54:15;;;;;;;;;;;;;;;16.02;83.89;99349.16;1086784;39;20382;-81
2023/08/28 05:55:31;;;;;;;;;;;;;;;15.97;84.13;99350.75;1085876;54;19951;-81
2023/08/28 05:56:37;;;;;;;;;;;;;;;15.93;85.09;99352.16;1085618;54;19953;-81
2023/08/28 05:57:43;;;;;;;;;;;;;;;15.95;84.60;99348.28;1087532;39;20310;-80
2023/08/28 05:58:52;;;;;;;;;;;;;;;15.97;84.32;99356.16;1086528;39;20810;-81
2023/08/28 06:00:04;;;;;;;;;;;;;;;15.99;84.55;99349.53;1085785;54;19982;-81
2023/08/28 06:01:15;;;;;;;;;;;;;;;16.01;84.64;99354.75;1086138;39;20386;-81
2023/08/28 06:02:32;;;;;;;;;;;;;;;16.03;84.45;99363.44;1086026;47;19950;-81
2023/08/28 06:03:40;;;;;;;;;;;;;;;16.05;84.37;99358.69;1086094;54;20549;-81
2023/08/28 06:04:51;;;;;;;;;;;;;;;16.07;83.62;99362.03;1085538;46;19946;-81
2023/08/28 06:05:57;;;;;;;;;;;;;;;16.09;83.66;99365.38;1085830;54;20086;-81
2023/08/28 06:07:19;;;;;;;;;;;;;;;16.11;83.52;99365.16;1086421;54;19947;-80
2023/08/28 06:08:24;;;;;;;;;;;;;;;16.11;83.42;99360.59;1086219;47;20037;-80
2023/08/28 06:09:29;;;;;;;;;;;;;;;16.14;83.51;99364.78;1086675;39;20504;-81
2023/08/28 06:10:31;;;;;;;;;;;;;;;16.11;83.24;99354.38;1086107;47;19998;-82
2023/08/28 06:11:36;;;;;;;;;;;;;;;16.14;83.08;99359.38;1085654;46;19939;-80
2023/08/28 06:12:42;;;;;;;;;;;;;;;16.07;83.53;99353.94;1085965;47;19950;-80
2023/08/28 06:13:45;;;;;;;;;;;;;;;16.01;83.84;99355.56;1085829;47;19975;-80
2023/08/28 06:14:58;;;;;;;;;;;;;;;16.01;83.80;99362.84;1085935;39;20339;-81
2023/08/28 06:16:33;;;;;;;;;;;;;;;15.97;83.76;99348.88;1086279;39;20373;-81
2023/08/28 06:27:15;;;;;;;;;;;;;;;16.16;80.77;99327.63;1087413;54;19998;-81
2023/08/28 06:34:04;;;;;;;;;;;;;;;16.20;79.85;99310.03;1086363;54;19962;-79
2023/08/28 06:43:47;;;;;;;;;;;;;;;15.61;81.63;99295.97;1086229;54;19943;-80
2023/08/28 06:45:03;;;;;;;;;;;;;;;;;;;;;
2023/08/28 06:52:11;;;;;;;;;;;;;;;15.97;79.11;99300.38;1085411;54;19942;-80
2023/08/28 06:54:26;;;;;;;;;;;;;;;16.13;78.74;99309.19;1084197;47;19950;-79
2023/08/28 06:55:27;;;;;;;;;;;;;;;16.07;77.23;99305.41;1086492;39;20955;-79
2023/08/28 06:56:30;;;;;;;;;;;;;;;16.16;77.49;99308.78;1084173;47;19955;-80
2023/08/28 06:57:31;;;;;;;;;;;;;;;16.10;77.04;99304.19;1083998;54;19947;-80
2023/08/28 06:58:34;;;;;;;;;;;;;;;16.16;77.35;99295.28;1083625;39;20362;-78
2023/08/28 06:59:37;;;;;;;;;;;;;;;16.10;76.94;99291.56;1084839;54;19950;-79
2023/08/28 07:02:18;;;;;;;;;;;;;;;16.28;76.66;99295.56;1088042;39;20218;-78
2023/08/28 07:03:25;;;;;;;;;;;;;;;16.23;76.74;99293.47;1088266;39;20232;-79
2023/08/28 07:04:42;;;;;;;;;;;;;;;16.31;76.72;99292.47;1086631;46;19947;-78